Historique des mesures à Cassis (13260), France
Quotidien Résumé Mars 31, 2018 Unités:  Métrique    US   Métrique/US
« Précédent (Jour)
Suivant (Jour) »
Quotidien Hebdomadaire Mensuel Annuel Période au choix
  Maximum: Minimum: Moyenne:
Température: TemperatureC °C 10.1 °C 12.9 °C
Point de rosée: DewpointC °C -0.8 °C 5.8 °C
Humidité: Humidity % 42 % 60 %
Vitesse du vent: 0 km/h 0 km/h 13.4 km/h
Rafales: 0 km/h - -
Vent:- - SSW
Pression: PressurehPa hPa 993.5 hPa -
Précipitations: 0.0 mm    
Historical Graphs
 
 
Mesures pour : Mars 31, 2018
Heure Temperature Point de rosée Pression Vent Vitesse du vent Rafales Humidité Pluie (par heure) Conditions
TemperatureC °C DewpointC °C PressurehPa hPa Calm     Humidity % HourlyPrecipMM mm SoftwareType W/m2
00:11 12.5 °C 8.4 °C 997.2 hPa Calm     76 % 0.0 mm open2300-1.11 W/m2
01:12 13.3 °C 9.3 °C 996.5 hPa WSW 4.7 km/h 4.7 km/h 77 % 0.0 mm open2300-1.11 W/m2
02:11 13.6 °C 9.6 °C 996.2 hPa Calm   4.7 km/h 77 % 0.0 mm open2300-1.11 W/m2
03:12 13.5 °C 9.5 °C 995.5 hPa Calm     77 % 0.0 mm open2300-1.11 W/m2
04:10 13.1 °C 9.1 °C 994.5 hPa Calm   2.3 km/h 77 % 0.0 mm open2300-1.11 W/m2
05:10 13.1 °C 9.1 °C 993.8 hPa Calm     77 % 0.0 mm open2300-1.11 W/m2
06:10 10.9 °C 7.1 °C 993.5 hPa Calm   6.4 km/h 77 % 0.0 mm open2300-1.11 W/m2
07:10 10.1 °C 6.2 °C 993.8 hPa North 4.7 km/h 5.1 km/h 77 % 0.0 mm open2300-1.11 W/m2
08:10 10.1 °C 6.2 °C 993.5 hPa NNW 3.4 km/h 6.4 km/h 77 % 0.0 mm open2300-1.11 W/m2
09:10 11.3 °C 7.2 °C 993.8 hPa North 4.7 km/h 4.7 km/h 76 % 0.0 mm open2300-1.11 W/m2
10:10 12.8 °C 8.1 °C 993.8 hPa SE 4.2 km/h 4.2 km/h 73 % 0.0 mm open2300-1.11 W/m2
11:10 15.3 °C 9.7 °C 994.5 hPa SSE 4.7 km/h 7.6 km/h 69 % 0.0 mm open2300-1.11 W/m2
13:12 17.2 °C 8.1 °C 994.5 hPa West 21.6 km/h 38.8 km/h 55 % 0.0 mm open2300-1.11 W/m2
14:12 16.1 °C 6.8 °C 995.1 hPa North 15.6 km/h 34.1 km/h 54 % 0.0 mm open2300-1.11 W/m2
15:12 16.3 °C 5.2 °C 995.5 hPa WNW 25.4 km/h 28.5 km/h 48 % 0.0 mm open2300-1.11 W/m2
16:12 16.2 °C 5.8 °C 995.8 hPa West 42.6 km/h 64.2 km/h 50 % 0.0 mm open2300-1.11 W/m2
17:12 15.8 °C 6.5 °C 996.2 hPa WNW 16.3 km/h 33.2 km/h 54 % 0.0 mm open2300-1.11 W/m2
18:11 15.6 °C 4.3 °C 997.2 hPa SSW 33.6 km/h 51 km/h 47 % 0.0 mm open2300-1.11 W/m2
19:11 14.4 °C 2.6 °C 998.5 hPa WNW 40.7 km/h 40.7 km/h 45 % 0.0 mm open2300-1.11 W/m2
20:12 13.1 °C 2.6 °C 999.5 hPa WSW 16.3 km/h 24.8 km/h 49 % 0.0 mm open2300-1.11 W/m2
21:11 12.0 °C -0.3 °C 1000.9 hPa North 12.2 km/h 17.9 km/h 43 % 0.0 mm open2300-1.11 W/m2
22:11 11.8 °C -0.8 °C 1002.3 hPa NW 24.8 km/h 37 km/h 42 % 0.0 mm open2300-1.11 W/m2
23:11 11.2 °C -0.4 °C 1002.9 hPa WNW 43.5 km/h 71.8 km/h 45 % 0.0 mm open2300-1.11 W/m2
Observations météo à CASSIS
WU-History script by Weather Underground - 1 mb